createdAt,value
2022-10-10T00:00:14.335Z,12.75
2022-10-10T00:02:41.516Z,12.57
2022-10-10T00:05:08.888Z,16.73
2022-10-10T00:07:36.028Z,12.10
2022-10-10T00:10:03.211Z,15.23
2022-10-10T00:12:30.378Z,10.70
2022-10-10T00:14:57.626Z,12.75
2022-10-10T00:17:24.808Z,13.90
2022-10-10T00:19:51.936Z,15.43
2022-10-10T00:22:19.095Z,9.15
2022-10-10T00:24:46.256Z,13.35
2022-10-10T00:27:13.392Z,10.68
2022-10-10T00:29:40.549Z,9.75
2022-10-10T00:32:07.809Z,12.05
2022-10-10T00:34:34.955Z,12.82
2022-10-10T00:37:02.101Z,13.00
2022-10-10T00:39:29.253Z,9.68
2022-10-10T00:41:56.388Z,12.18
2022-10-10T00:44:23.572Z,9.50
2022-10-10T00:46:50.708Z,9.73
2022-10-10T00:49:23.393Z,9.23
2022-10-10T00:51:52.285Z,9.60
2022-10-10T00:54:21.154Z,11.23
2022-10-10T00:56:53.742Z,9.98
2022-10-10T00:59:21.234Z,9.10
2022-10-10T01:01:48.558Z,10.45
2022-10-10T01:04:30.837Z,13.65
2022-10-10T01:06:58.282Z,8.73
2022-10-10T01:09:25.871Z,11.43
2022-10-10T01:11:55.960Z,8.38
2022-10-10T01:14:26.220Z,12.60
2022-10-10T01:17:02.646Z,11.93
2022-10-10T01:19:29.775Z,14.82
2022-10-10T01:21:56.909Z,9.52
2022-10-10T01:24:43.021Z,15.18
2022-10-10T01:27:30.393Z,12.60
2022-10-10T01:30:02.678Z,14.63
2022-10-10T01:32:29.861Z,6.68
2022-10-10T01:35:01.296Z,9.25
2022-10-10T01:37:38.433Z,10.35
2022-10-10T01:40:10.169Z,11.77
2022-10-10T01:42:47.098Z,9.98
2022-10-10T01:45:14.302Z,12.85
2022-10-10T01:47:41.597Z,9.70
2022-10-10T01:50:11.479Z,7.20
2022-10-10T01:52:41.737Z,11.65
2022-10-10T01:55:21.023Z,9.20
2022-10-10T01:57:48.173Z,10.75
2022-10-10T02:00:16.725Z,9.02
2022-10-10T02:02:43.852Z,7.35
2022-10-10T02:05:17.022Z,10.63
2022-10-10T02:07:47.409Z,12.70
2022-10-10T02:10:17.040Z,10.07
2022-10-10T02:12:44.556Z,15.50
2022-10-10T02:15:14.288Z,10.77
2022-10-10T02:17:42.323Z,8.38
2022-10-10T02:20:11.787Z,14.20
2022-10-10T02:22:42.233Z,13.77
2022-10-10T02:25:09.638Z,10.77
2022-10-10T02:27:45.366Z,11.15
2022-10-10T02:30:12.886Z,11.52
2022-10-10T02:32:45.297Z,13.63
2022-10-10T02:35:20.953Z,12.10
2022-10-10T02:37:48.380Z,11.52
2022-10-10T02:40:17.825Z,9.77
2022-10-10T02:42:46.252Z,9.48
2022-10-10T02:45:13.600Z,8.60
2022-10-10T02:47:40.820Z,11.50
2022-10-10T02:50:08.203Z,9.38
2022-10-10T02:52:35.337Z,11.23
2022-10-10T02:55:02.505Z,10.23
2022-10-10T02:57:29.725Z,10.57
2022-10-10T02:59:57.255Z,11.00
2022-10-10T03:02:24.432Z,11.88
2022-10-10T03:04:51.589Z,10.77
2022-10-10T03:07:18.815Z,11.38
2022-10-10T03:09:45.986Z,11.02
2022-10-10T03:12:13.165Z,11.07
2022-10-10T03:14:40.285Z,8.38
2022-10-10T03:17:07.453Z,10.80
2022-10-10T03:19:34.710Z,12.85
2022-10-10T03:22:01.850Z,13.77
2022-10-10T03:24:29.133Z,11.05
2022-10-10T03:26:56.335Z,8.82
2022-10-10T03:29:23.571Z,9.18
2022-10-10T03:31:50.760Z,11.55
2022-10-10T03:34:18.072Z,14.70
2022-10-10T03:36:45.229Z,9.82
2022-10-10T03:39:12.476Z,9.68
2022-10-10T03:41:39.639Z,9.77
2022-10-10T03:44:06.785Z,9.02
2022-10-10T03:46:33.934Z,10.40
2022-10-10T03:49:01.109Z,10.40
2022-10-10T03:51:28.325Z,11.90
2022-10-10T03:53:55.557Z,10.20
2022-10-10T03:56:22.745Z,12.95
2022-10-10T03:58:49.882Z,11.05
2022-10-10T04:01:17.077Z,11.20
2022-10-10T04:03:47.538Z,9.80
2022-10-10T04:06:17.425Z,15.13
2022-10-10T04:08:44.568Z,11.38
2022-10-10T04:11:11.705Z,8.15
2022-10-10T04:13:38.902Z,13.05
2022-10-10T04:16:06.214Z,9.95
2022-10-10T04:18:33.388Z,9.40
2022-10-10T04:21:04.623Z,13.48
2022-10-10T04:23:31.889Z,10.50
2022-10-10T04:25:59.064Z,9.35
2022-10-10T04:28:26.286Z,10.55
2022-10-10T04:30:56.218Z,10.50
2022-10-10T04:33:23.629Z,13.70
2022-10-10T04:35:50.776Z,11.45
2022-10-10T04:38:19.846Z,8.70
2022-10-10T04:40:48.802Z,9.45
2022-10-10T04:43:15.975Z,9.23
2022-10-10T04:45:43.168Z,15.10
2022-10-10T04:48:10.392Z,12.23
2022-10-10T04:50:37.765Z,12.13
2022-10-10T04:53:04.984Z,13.40
2022-10-10T04:55:32.131Z,12.63
2022-10-10T04:57:59.349Z,9.27
2022-10-10T05:00:26.533Z,10.18
2022-10-10T05:02:54.236Z,14.00
2022-10-10T05:05:21.564Z,10.63
2022-10-10T05:07:51.860Z,11.95
2022-10-10T05:10:22.418Z,11.48
2022-10-10T05:12:49.920Z,15.00
2022-10-10T05:15:17.561Z,14.57
2022-10-10T05:17:44.833Z,12.80
2022-10-10T05:20:12.294Z,10.18
2022-10-10T05:22:39.502Z,12.32
2022-10-10T05:25:06.868Z,13.45
2022-10-10T05:27:34.021Z,10.57
2022-10-10T05:30:01.200Z,10.65
2022-10-10T05:32:28.387Z,10.52
2022-10-10T05:34:55.508Z,13.20
2022-10-10T05:37:22.709Z,15.43
2022-10-10T05:39:54.337Z,13.82
2022-10-10T05:42:21.915Z,10.15
2022-10-10T05:44:49.649Z,10.35
2022-10-10T05:47:17.050Z,10.45
2022-10-10T05:49:44.323Z,14.48
2022-10-10T05:52:11.595Z,11.48
2022-10-10T05:54:38.797Z,12.00
2022-10-10T05:57:06.065Z,11.75
2022-10-10T05:59:33.249Z,11.70
2022-10-10T06:02:00.422Z,10.50
2022-10-10T06:04:27.645Z,12.90
2022-10-10T06:06:54.786Z,14.50
2022-10-10T06:09:21.933Z,12.13
2022-10-10T06:11:49.084Z,13.80
2022-10-10T06:14:16.240Z,12.23
2022-10-10T06:16:45.187Z,11.02
2022-10-10T06:19:14.985Z,17.38
2022-10-10T06:21:42.455Z,10.65
2022-10-10T06:24:10.780Z,12.95
2022-10-10T06:26:38.004Z,15.23
2022-10-10T06:29:05.407Z,15.10
2022-10-10T06:31:32.580Z,16.40
2022-10-10T06:33:59.704Z,15.98
2022-10-10T06:36:26.962Z,13.38
2022-10-10T06:38:54.088Z,13.48
2022-10-10T06:41:21.232Z,14.20
2022-10-10T06:43:49.455Z,18.35
2022-10-10T06:46:16.597Z,11.88
2022-10-10T06:48:43.888Z,16.73
2022-10-10T06:51:15.328Z,13.60
2022-10-10T06:53:43.013Z,16.23
2022-10-10T06:56:17.844Z,13.18
2022-10-10T06:58:45.411Z,16.00
2022-10-10T07:01:12.797Z,12.52
2022-10-10T07:03:40.060Z,11.57
2022-10-10T07:06:09.173Z,13.20
2022-10-10T07:08:36.325Z,12.43
2022-10-10T07:11:03.769Z,9.05
2022-10-10T07:13:31.302Z,14.63
2022-10-10T07:15:58.464Z,11.77
2022-10-10T07:18:25.755Z,12.75
2022-10-10T07:20:56.364Z,13.00
2022-10-10T07:23:23.509Z,13.68
2022-10-10T07:25:50.714Z,14.60
2022-10-10T07:28:17.987Z,12.48
2022-10-10T07:30:46.257Z,10.35
2022-10-10T07:33:14.235Z,13.85
2022-10-10T07:35:41.412Z,16.05
2022-10-10T07:38:08.693Z,12.45
2022-10-10T07:40:35.873Z,10.90
2022-10-10T07:43:03.032Z,11.90
2022-10-10T07:45:30.165Z,8.73
2022-10-10T07:47:57.401Z,8.00
2022-10-10T07:50:26.035Z,9.95
2022-10-10T07:52:53.195Z,10.10
2022-10-10T07:55:20.396Z,9.18
2022-10-10T07:57:53.084Z,7.63
2022-10-10T08:00:20.708Z,8.55
2022-10-10T08:02:47.844Z,9.80
2022-10-10T08:05:15.030Z,11.77
2022-10-10T08:07:42.164Z,8.38
2022-10-10T08:10:09.928Z,11.05
2022-10-10T08:12:37.480Z,9.32
2022-10-10T08:15:05.951Z,12.98
2022-10-10T08:17:33.154Z,12.70
2022-10-10T08:20:00.354Z,7.97
2022-10-10T08:22:27.479Z,8.52
2022-10-10T08:24:54.791Z,7.32
2022-10-10T08:27:22.034Z,8.32
2022-10-10T08:29:49.257Z,10.27
2022-10-10T08:32:16.449Z,7.95
2022-10-10T08:34:43.637Z,9.20
2022-10-10T08:37:10.829Z,9.27
2022-10-10T08:39:38.057Z,11.05
2022-10-10T08:42:05.240Z,9.52
2022-10-10T08:44:41.130Z,11.52
2022-10-10T08:47:13.559Z,9.68
2022-10-10T08:49:47.063Z,8.23
2022-10-10T08:52:26.293Z,9.02
2022-10-10T08:54:58.290Z,7.78
2022-10-10T08:57:29.195Z,10.95
2022-10-10T08:59:59.643Z,8.80
2022-10-10T09:02:43.975Z,10.43
2022-10-10T09:05:19.906Z,7.80
2022-10-10T09:07:47.037Z,7.22
2022-10-10T09:10:20.804Z,8.15
2022-10-10T09:12:52.778Z,14.00
2022-10-10T09:15:19.946Z,8.90
2022-10-10T09:17:59.098Z,8.75
2022-10-10T09:20:26.976Z,10.00
2022-10-10T09:23:03.764Z,8.57
2022-10-10T09:25:39.089Z,7.70
2022-10-10T09:30:36.165Z,13.55
2022-10-10T09:33:08.816Z,8.00
2022-10-10T09:35:38.392Z,10.25
2022-10-10T09:38:11.493Z,10.75
2022-10-10T09:40:40.562Z,9.57
2022-10-10T09:43:20.900Z,9.38
2022-10-10T09:45:58.322Z,8.23
2022-10-10T09:48:28.835Z,10.85
2022-10-10T09:50:56.369Z,13.63
2022-10-10T09:53:23.988Z,8.30
2022-10-10T09:55:53.746Z,9.52
2022-10-10T09:58:38.889Z,10.05
2022-10-10T10:01:19.880Z,8.50
2022-10-10T10:04:23.529Z,9.57
2022-10-10T10:06:53.204Z,11.93
2022-10-10T10:09:21.638Z,17.00
2022-10-10T10:11:49.910Z,11.90
2022-10-10T10:14:25.767Z,19.23
2022-10-10T10:16:53.800Z,8.88
2022-10-10T10:19:40.809Z,10.52
2022-10-10T10:22:26.612Z,10.93
2022-10-10T10:24:54.417Z,10.82
2022-10-10T10:27:23.350Z,11.90
2022-10-10T10:29:54.961Z,8.00
2022-10-10T10:32:28.217Z,8.80
2022-10-10T10:35:03.573Z,11.57
2022-10-10T10:37:33.837Z,11.18
2022-10-10T10:40:07.159Z,10.80
2022-10-10T10:42:42.864Z,9.05
2022-10-10T10:45:16.894Z,16.50
2022-10-10T10:47:51.837Z,10.07
2022-10-10T10:50:45.483Z,13.02
2022-10-10T10:53:18.296Z,9.93
2022-10-10T10:56:03.594Z,12.13
2022-10-10T11:05:22.471Z,27.45
2022-10-10T11:07:21.087Z,11.88
2022-10-10T11:10:02.000Z,12.48
2022-10-10T11:12:38.317Z,12.80
2022-10-10T11:16:01.513Z,10.10
2022-10-10T11:18:37.693Z,13.57
2022-10-10T11:21:19.876Z,11.77
2022-10-10T11:24:04.122Z,11.77
2022-10-10T11:26:34.134Z,10.65
2022-10-10T11:29:14.366Z,11.98
2022-10-10T11:31:45.312Z,16.48
2022-10-10T11:34:20.654Z,15.70
2022-10-10T11:36:48.280Z,11.00
2022-10-10T11:39:19.147Z,12.23
2022-10-10T11:41:55.731Z,11.02
2022-10-10T11:44:29.693Z,9.80
2022-10-10T11:46:59.664Z,11.73
2022-10-10T11:49:45.558Z,8.40
2022-10-10T11:52:34.451Z,13.23
2022-10-10T11:55:18.087Z,13.38
2022-10-10T11:58:04.232Z,12.90
2022-10-10T12:00:35.723Z,15.80
2022-10-10T12:03:02.939Z,14.85
2022-10-10T12:05:30.830Z,11.90
2022-10-10T12:07:57.984Z,12.32
2022-10-10T12:10:28.365Z,16.35
2022-10-10T12:12:57.833Z,15.48
2022-10-10T12:15:28.160Z,15.27
2022-10-10T12:17:55.835Z,12.25
2022-10-10T12:20:30.335Z,9.98
2022-10-10T12:23:08.482Z,11.45
2022-10-10T12:25:42.911Z,13.25
2022-10-10T12:28:16.849Z,17.10
2022-10-10T12:30:57.699Z,13.18
2022-10-10T12:33:34.659Z,16.90
2022-10-10T12:36:19.993Z,13.77
2022-10-10T12:39:11.310Z,15.90
2022-10-10T12:41:57.104Z,12.32
2022-10-10T12:44:44.560Z,13.65
2022-10-10T12:47:14.877Z,16.60
2022-10-10T12:49:58.657Z,13.77
2022-10-10T12:52:27.795Z,13.45
2022-10-10T12:55:04.469Z,15.32
2022-10-10T12:57:34.104Z,18.35
2022-10-10T13:00:06.666Z,16.70
2022-10-10T13:02:34.666Z,14.30
2022-10-10T13:05:03.041Z,16.95
2022-10-10T13:07:30.299Z,13.30
2022-10-10T13:10:06.217Z,16.33
2022-10-10T13:12:34.164Z,18.20
2022-10-10T13:15:01.298Z,17.65
2022-10-10T13:17:33.017Z,13.77
2022-10-10T13:20:01.270Z,15.07
2022-10-10T13:22:29.766Z,18.10
2022-10-10T13:24:57.246Z,13.77
2022-10-10T13:27:29.323Z,14.63
2022-10-10T13:29:56.688Z,16.80
2022-10-10T13:32:28.180Z,16.30
2022-10-10T13:34:58.207Z,15.20
2022-10-10T13:37:26.162Z,16.10
2022-10-10T13:39:54.114Z,13.85
2022-10-10T13:42:24.449Z,20.05
2022-10-10T13:44:52.990Z,23.70
2022-10-10T13:47:38.763Z,14.02
2022-10-10T13:50:18.865Z,22.45
2022-10-10T13:52:46.022Z,21.50
2022-10-10T13:55:17.165Z,25.13
2022-10-10T13:57:44.396Z,13.60
2022-10-10T14:00:19.332Z,16.80
2022-10-10T14:02:46.796Z,15.77
2022-10-10T14:05:26.144Z,22.67
2022-10-10T14:07:53.624Z,18.42
2022-10-10T14:10:26.582Z,19.02
2022-10-10T14:12:57.995Z,21.52
2022-10-10T14:15:34.415Z,23.30
2022-10-10T14:18:01.709Z,20.17
2022-10-10T14:20:28.849Z,22.20
2022-10-10T14:22:56.036Z,18.80
2022-10-10T14:25:23.217Z,20.95
2022-10-10T14:27:50.361Z,22.63
2022-10-10T14:30:17.512Z,27.50
2022-10-10T14:32:44.685Z,22.35
2022-10-10T14:35:13.377Z,27.85
2022-10-10T14:37:40.535Z,25.13
2022-10-10T14:40:21.195Z,22.02
2022-10-10T14:42:48.876Z,25.55
2022-10-10T14:45:17.558Z,24.60
2022-10-10T14:47:44.726Z,19.15
2022-10-10T14:50:23.385Z,25.50
2022-10-10T14:52:50.710Z,19.73
2022-10-10T14:55:17.986Z,20.75
2022-10-10T14:57:45.129Z,23.88
2022-10-10T15:00:14.564Z,23.90
2022-10-10T15:02:45.440Z,19.63
2022-10-10T15:05:13.581Z,8.82
2022-10-10T15:07:40.879Z,11.38
2022-10-10T15:10:32.561Z,11.90
2022-10-10T15:12:56.001Z,7.10
2022-10-10T15:15:23.140Z,9.05
2022-10-10T15:17:50.419Z,10.88
2022-10-10T15:20:17.644Z,8.25
2022-10-10T15:22:46.096Z,15.23
2022-10-10T15:25:13.437Z,14.82
2022-10-10T15:27:40.649Z,15.98
2022-10-10T15:30:08.214Z,8.70
2022-10-10T15:32:38.057Z,14.95
2022-10-10T15:35:05.457Z,7.68
2022-10-10T15:37:32.608Z,12.77
2022-10-10T15:39:59.852Z,8.90
2022-10-10T15:42:27.039Z,13.18
2022-10-10T15:44:54.217Z,7.40
2022-10-10T15:47:21.493Z,11.88
2022-10-10T15:49:48.697Z,9.65
2022-10-10T15:52:15.853Z,12.00
2022-10-10T15:54:43.371Z,17.13
2022-10-10T15:57:11.682Z,13.82
2022-10-10T15:59:43.413Z,16.55
2022-10-10T16:02:11.893Z,17.92
2022-10-10T16:04:39.165Z,16.70
2022-10-10T16:07:24.641Z,16.30
2022-10-10T16:09:54.004Z,14.63
2022-10-10T16:12:21.193Z,13.93
2022-10-10T16:14:48.414Z,21.95
2022-10-10T16:17:19.458Z,15.35
2022-10-10T16:19:49.544Z,18.52
2022-10-10T16:22:16.774Z,17.27
2022-10-10T16:24:53.961Z,14.15
2022-10-10T16:27:32.176Z,15.82
2022-10-10T16:29:59.439Z,17.38
2022-10-10T16:32:26.557Z,17.73
2022-10-10T16:34:53.673Z,9.45
2022-10-10T16:37:20.826Z,25.85
2022-10-10T16:39:48.015Z,20.60
2022-10-10T16:42:15.153Z,15.90
2022-10-10T16:44:42.961Z,18.30
2022-10-10T16:47:10.175Z,20.02
2022-10-10T16:49:37.353Z,17.70
2022-10-10T16:52:04.748Z,18.13
2022-10-10T16:54:31.905Z,17.80
2022-10-10T16:56:59.030Z,18.35
2022-10-10T16:59:26.218Z,13.38
2022-10-10T17:01:53.377Z,20.92
2022-10-10T17:04:20.556Z,20.45
2022-10-10T17:06:47.681Z,22.73
2022-10-10T17:09:17.027Z,22.08
2022-10-10T17:11:49.209Z,17.75
2022-10-10T17:14:18.405Z,26.83
2022-10-10T17:17:10.519Z,27.08
2022-10-10T17:19:33.011Z,19.52
2022-10-10T17:22:00.212Z,21.13
2022-10-10T17:24:27.345Z,20.25
2022-10-10T17:26:54.465Z,18.20
2022-10-10T17:29:23.622Z,29.02
2022-10-10T17:31:50.833Z,24.33
2022-10-10T17:34:18.019Z,14.93
2022-10-10T17:36:45.139Z,16.40
2022-10-10T17:39:12.264Z,22.70
2022-10-10T17:41:39.532Z,19.83
2022-10-10T17:44:10.568Z,16.77
2022-10-10T17:46:38.561Z,25.67
2022-10-10T17:49:06.767Z,24.35
2022-10-10T17:51:34.723Z,16.17
2022-10-10T17:54:02.152Z,18.42
2022-10-10T17:56:29.529Z,19.77
2022-10-10T17:58:56.995Z,17.55
2022-10-10T18:01:24.234Z,21.77
2022-10-10T18:03:51.483Z,25.45
2022-10-10T18:06:23.380Z,19.58
2022-10-10T18:08:51.552Z,13.80
2022-10-10T18:11:20.382Z,14.98
2022-10-10T18:13:47.847Z,16.50
2022-10-10T18:16:19.085Z,19.73
2022-10-10T18:18:50.769Z,13.35
2022-10-10T18:21:19.576Z,20.95
2022-10-10T18:23:46.812Z,22.00
2022-10-10T18:26:15.511Z,19.50
2022-10-10T18:28:43.284Z,21.63
2022-10-10T18:31:15.370Z,20.88
2022-10-10T18:33:44.792Z,21.02
2022-10-10T18:36:12.838Z,15.25
2022-10-10T18:38:40.061Z,18.25
2022-10-10T18:41:11.519Z,17.83
2022-10-10T18:43:39.781Z,21.90
2022-10-10T18:46:08.317Z,16.70
2022-10-10T18:48:36.170Z,15.48
2022-10-10T18:51:07.856Z,17.20
2022-10-10T18:53:39.020Z,20.85
2022-10-10T18:56:06.593Z,17.67
2022-10-10T18:58:35.411Z,13.55
2022-10-10T19:01:03.918Z,17.60
2022-10-10T19:03:31.489Z,23.65
2022-10-10T19:05:58.784Z,18.92
2022-10-10T19:08:25.972Z,17.35
2022-10-10T19:10:53.174Z,18.52
2022-10-10T19:13:20.698Z,20.05
2022-10-10T19:15:50.188Z,22.88
2022-10-10T19:18:17.347Z,16.73
2022-10-10T19:20:44.606Z,23.10
2022-10-10T19:23:13.314Z,19.17
2022-10-10T19:25:41.057Z,14.07
2022-10-10T19:28:08.330Z,14.85
2022-10-10T19:30:45.033Z,27.15
2022-10-10T19:33:12.749Z,15.85
2022-10-10T19:35:40.726Z,21.00
2022-10-10T19:38:08.893Z,16.60
2022-10-10T19:40:36.225Z,21.60
2022-10-10T19:43:03.588Z,19.17
2022-10-10T19:45:30.768Z,21.23
2022-10-10T19:47:57.940Z,15.27
2022-10-10T19:50:25.092Z,27.48
2022-10-10T19:52:52.217Z,23.17
2022-10-10T19:55:19.972Z,26.40
2022-10-10T19:57:47.214Z,19.63
2022-10-10T20:00:14.772Z,19.75
2022-10-10T20:02:43.924Z,18.70
2022-10-10T20:05:11.160Z,14.95
2022-10-10T20:07:38.349Z,25.20
2022-10-10T20:10:05.649Z,18.13
2022-10-10T20:12:32.965Z,24.98
2022-10-10T20:15:00.277Z,14.13
2022-10-10T20:17:28.253Z,19.90
2022-10-10T20:19:55.448Z,16.08
2022-10-10T20:22:22.592Z,19.50
2022-10-10T20:24:49.731Z,19.95
2022-10-10T20:27:16.892Z,11.60
2022-10-10T20:29:44.097Z,18.23
2022-10-10T20:32:11.284Z,25.33
2022-10-10T20:34:38.436Z,19.27
2022-10-10T20:37:05.631Z,18.95
2022-10-10T20:39:32.759Z,24.65
2022-10-10T20:41:59.885Z,17.52
2022-10-10T20:44:27.113Z,19.88
2022-10-10T20:46:54.262Z,22.20
2022-10-10T20:49:22.056Z,21.25
2022-10-10T20:51:51.677Z,17.90
2022-10-10T20:54:19.955Z,19.80
2022-10-10T20:56:49.609Z,19.73
2022-10-10T20:59:17.496Z,16.52
2022-10-10T21:01:47.555Z,14.88
2022-10-10T21:04:14.978Z,17.17
2022-10-10T21:06:45.608Z,24.02
2022-10-10T21:09:13.935Z,17.13
2022-10-10T21:11:41.371Z,16.98
2022-10-10T21:14:08.872Z,24.23
2022-10-10T21:16:37.760Z,12.70
2022-10-10T21:19:06.331Z,15.23
2022-10-10T21:21:35.176Z,16.17
2022-10-10T21:24:03.756Z,18.90
2022-10-10T21:26:31.469Z,17.13
2022-10-10T21:29:00.762Z,16.15
2022-10-10T21:31:29.644Z,19.67
2022-10-10T21:33:56.915Z,16.45
2022-10-10T21:36:25.861Z,17.08
2022-10-10T21:38:53.669Z,15.77
2022-10-10T21:41:21.584Z,16.55
2022-10-10T21:43:51.640Z,16.30
2022-10-10T21:46:20.193Z,19.33
2022-10-10T21:48:47.350Z,16.73
2022-10-10T21:51:15.991Z,17.38
2022-10-10T21:53:43.990Z,15.30
2022-10-10T21:56:11.718Z,18.42
2022-10-10T21:58:40.545Z,19.65
2022-10-10T22:01:08.846Z,25.55
2022-10-10T22:03:36.129Z,20.63
2022-10-10T22:06:08.069Z,18.58
2022-10-10T22:08:35.733Z,20.33
2022-10-10T22:11:03.809Z,15.20
2022-10-10T22:13:31.506Z,14.43
2022-10-10T22:15:58.795Z,20.83
2022-10-10T22:18:26.103Z,18.45
2022-10-10T22:20:53.293Z,21.80
2022-10-10T22:23:20.659Z,25.58
2022-10-10T22:25:49.489Z,11.45
2022-10-10T22:28:17.023Z,17.67
2022-10-10T22:30:44.335Z,25.13
2022-10-10T22:33:11.768Z,20.75
2022-10-10T22:35:39.124Z,17.40
2022-10-10T22:38:06.880Z,18.15
2022-10-10T22:40:34.137Z,21.58
2022-10-10T22:43:01.430Z,22.60
2022-10-10T22:45:29.356Z,17.13
2022-10-10T22:47:56.618Z,16.40
2022-10-10T22:50:23.847Z,22.88
2022-10-10T22:52:50.971Z,18.55
2022-10-10T22:55:18.846Z,29.92
2022-10-10T22:57:46.362Z,22.88
2022-10-10T23:00:14.078Z,14.68
2022-10-10T23:02:41.324Z,21.05
2022-10-10T23:05:08.880Z,18.15
2022-10-10T23:07:36.394Z,24.33
2022-10-10T23:10:03.930Z,18.23
2022-10-10T23:12:31.129Z,11.05
2022-10-10T23:14:58.370Z,21.70
2022-10-10T23:17:25.496Z,15.55
2022-10-10T23:19:53.092Z,16.98
2022-10-10T23:22:20.324Z,24.42
2022-10-10T23:24:47.565Z,20.23
2022-10-10T23:27:14.777Z,14.80
2022-10-10T23:29:42.010Z,21.17
2022-10-10T23:32:09.189Z,16.30
2022-10-10T23:34:36.443Z,24.83
2022-10-10T23:37:03.682Z,19.23
2022-10-10T23:39:30.961Z,17.20
2022-10-10T23:41:58.098Z,28.23
2022-10-10T23:44:25.322Z,23.08
2022-10-10T23:46:52.513Z,20.80
2022-10-10T23:49:19.643Z,14.82
2022-10-10T23:51:47.045Z,25.48
2022-10-10T23:54:14.174Z,20.08
2022-10-10T23:56:41.372Z,14.27
2022-10-10T23:59:08.680Z,18.60
